Time;durP1;ratioP1;P1;durP2;ratioP2;P2;SDS_P1;SDS_P2;PMS_P1;PMS_P2;Temp;Humidity;BMP_temperature;BMP_pressure;BME280_temperature;BME280_humidity;BME280_pressure;Samples;Min_cycle;Max_cycle;Signal;HPM_P1;HPM_P2
2023/03/18 09:52:02;;;;;;;33.60;2.70;;;;;;;5.95;70.60;100130.05;80294;1305;3013488;-66
2023/03/18 09:54:40;;;;;;;25.30;2.20;;;;;;;5.99;70.44;100135.66;79632;1302;3011672;-70
2023/03/18 09:57:21;;;;;;;17.00;2.20;;;;;;;5.98;70.55;100136.92;78010;1309;3050235;-63
2023/03/18 09:59:53;;;;;;;23.70;2.90;;;;;;;6.15;70.29;100133.96;77812;1304;3052545;-63
2023/03/18 10:02:45;;;;;;;24.90;2.40;;;;;;;6.18;70.12;100131.78;79393;1304;3011921;-65
2023/03/18 10:05:15;;;;;;;18.80;3.60;;;;;;;6.36;69.70;100128.95;75223;1304;6661561;-66
2023/03/18 10:08:23;;;;;;;19.70;2.20;;;;;;;6.38;68.98;100126.63;78226;1298;3050361;-70
2023/03/18 10:11:01;;;;;;;17.20;2.50;;;;;;;6.34;69.22;100127.98;78375;1298;3057128;-62
2023/03/18 10:13:46;;;;;;;18.80;2.90;;;;;;;6.28;69.22;100128.52;78135;1295;3049621;-72
2023/03/18 10:16:19;;;;;;;28.20;3.10;;;;;;;6.34;69.32;100122.58;78543;1301;3052808;-69
2023/03/18 10:18:47;;;;;;;31.80;2.90;;;;;;;6.33;69.14;100126.08;79685;1295;3013309;-63
2023/03/18 10:21:26;;;;;;;33.70;3.40;;;;;;;6.35;69.02;100124.28;78168;1298;3051589;-65
2023/03/18 10:24:00;;;;;;;23.30;2.90;;;;;;;6.28;69.08;100124.34;78507;1299;3053567;-67
2023/03/18 10:26:42;;;;;;;33.00;3.00;;;;;;;6.19;69.34;100122.88;78970;1299;3011677;-65
2023/03/18 10:29:45;;;;;;;17.20;2.40;;;;;;;6.21;69.69;100120.71;78334;1307;3069075;-68
2023/03/18 10:32:27;;;;;;;29.20;3.60;;;;;;;6.15;69.53;100114.46;78390;1297;3051095;-66
2023/03/18 10:35:08;;;;;;;19.90;2.70;;;;;;;6.12;69.71;100113.73;78229;1297;3057505;-68
2023/03/18 10:38:08;;;;;;;25.70;3.00;;;;;;;6.10;69.91;100111.16;78298;1301;3050048;-65
2023/03/18 10:40:37;;;;;;;20.20;3.00;;;;;;;6.24;69.62;100102.52;78437;1298;3054825;-66
2023/03/18 10:43:09;;;;;;;19.90;2.60;;;;;;;6.30;69.73;100103.39;79693;1298;3015734;-65
2023/03/18 10:45:36;;;;;;;27.00;3.40;;;;;;;6.48;69.32;100104.01;78022;1302;3051851;-63
2023/03/18 10:48:40;;;;;;;17.60;2.90;;;;;;;6.59;68.82;100101.73;79462;1296;3012064;-67
2023/03/18 10:51:12;;;;;;;17.70;2.80;;;;;;;6.60;68.58;100095.60;78412;1295;3051871;-66
2023/03/18 10:53:39;;;;;;;22.90;2.60;;;;;;;6.61;68.59;100092.95;79583;1302;3011875;-64
2023/03/18 10:56:10;;;;;;;30.60;4.20;;;;;;;6.71;68.20;100099.23;78251;1298;3028469;-70
2023/03/18 10:58:38;;;;;;;22.00;3.30;;;;;;;6.73;67.71;100100.23;79591;1296;3013321;-65
2023/03/18 11:01:08;;;;;;;28.70;3.40;;;;;;;6.69;67.86;100097.56;79198;1296;3013383;-65
2023/03/18 11:03:40;;;;;;;18.60;2.70;;;;;;;6.64;68.08;100097.20;79625;1299;3013573;-63
2023/03/18 11:06:37;;;;;;;19.00;2.90;;;;;;;6.73;68.42;100091.85;78294;1301;3052674;-65
2023/03/18 11:09:09;;;;;;;18.90;3.60;;;;;;;6.85;68.32;100088.48;78434;1295;3069430;-66
2023/03/18 11:11:41;;;;;;;23.30;2.80;;;;;;;6.96;67.82;100084.43;79595;1298;3012828;-62
2023/03/18 11:14:16;;;;;;;20.70;3.30;;;;;;;6.97;67.40;100079.17;78421;1295;3056927;-67
2023/03/18 11:17:03;;;;;;;17.30;2.50;;;;;;;7.12;66.99;100080.53;79446;1296;3011646;-66
2023/03/18 11:19:38;;;;;;;36.40;3.10;;;;;;;7.14;66.61;100079.42;78523;1300;3053632;-67
2023/03/18 11:22:23;;;;;;;20.80;2.10;;;;;;;7.10;66.57;100078.85;79152;1295;3013230;-68
2023/03/18 11:25:05;;;;;;;24.10;2.40;;;;;;;7.12;66.55;100078.62;78155;1298;3052027;-64
2023/03/18 11:27:36;;;;;;;24.70;3.80;;;;;;;7.10;66.73;100083.41;78246;1298;3055723;-68
2023/03/18 11:30:12;;;;;;;18.70;2.50;;;;;;;7.14;66.82;100079.59;79724;1295;3013693;-69
2023/03/18 11:33:05;;;;;;;17.90;2.40;;;;;;;7.17;66.39;100080.90;78844;1298;3070021;-66
2023/03/18 11:35:53;;;;;;;20.10;2.30;;;;;;;7.14;66.56;100076.98;78437;1296;3052534;-73
2023/03/18 11:38:27;;;;;;;34.10;4.20;;;;;;;7.06;66.66;100081.44;78622;1301;3057913;-66
2023/03/18 11:41:08;;;;;;;19.40;2.80;;;;;;;7.03;66.94;100084.71;79397;1295;3011728;-70
2023/03/18 11:46:35;;;;;;;30.50;3.40;;;;;;;7.21;66.88;100089.63;79995;1301;3011702;-69
2023/03/18 11:49:02;;;;;;;33.00;3.60;;;;;;;7.23;66.71;100088.16;79396;1300;3013165;-67
2023/03/18 11:51:58;;;;;;;29.80;4.00;;;;;;;7.24;66.51;100086.23;77849;1301;3050105;-69
2023/03/18 11:54:32;;;;;;;21.20;3.60;;;;;;;7.21;66.59;100083.68;77943;1305;3053236;-66
2023/03/18 11:57:17;;;;;;;32.00;3.70;;;;;;;7.26;66.36;100083.69;78627;1301;3011563;-61
2023/03/18 12:00:12;;;;;;;19.10;2.90;;;;;;;7.19;66.61;100083.42;76623;1304;3053239;-67
2023/03/18 12:03:03;;;;;;;22.10;3.30;;;;;;;7.30;66.56;100081.46;78143;1297;3069707;-67
2023/03/18 12:05:51;;;;;;;22.30;2.70;;;;;;;7.40;66.30;100079.84;78315;1298;3051641;-65
2023/03/18 12:08:55;;;;;;;16.20;3.10;;;;;;;7.44;66.13;100075.36;78182;1298;3056447;-72
2023/03/18 12:11:45;;;;;;;12.80;2.00;;;;;;;7.52;66.02;100070.34;77927;1298;3048837;-61
2023/03/18 12:14:19;;;;;;;14.00;2.80;;;;;;;7.51;65.62;100067.08;78215;1298;3054964;-69
2023/03/18 12:17:17;;;;;;;25.30;2.70;;;;;;;7.60;65.58;100065.86;79764;1301;3011260;-71
2023/03/18 12:20:08;;;;;;;10.80;2.00;;;;;;;7.68;65.70;100066.41;78445;1297;3053004;-64
2023/03/18 12:22:50;;;;;;;9.20;3.00;;;;;;;7.63;64.89;100068.70;78749;1300;3053629;-64
2023/03/18 12:25:29;;;;;;;18.70;2.40;;;;;;;7.60;65.41;100070.73;78624;1298;3070874;-68
2023/03/18 12:28:02;;;;;;;10.70;3.20;;;;;;;7.64;65.31;100068.16;78512;1298;3051712;-66
2023/03/18 12:30:32;;;;;;;17.40;2.30;;;;;;;7.60;65.23;100073.69;79159;1297;3011761;-63
2023/03/18 12:33:13;;;;;;;14.00;2.30;;;;;;;7.54;65.35;100066.95;78288;1298;3049128;-71
2023/03/18 12:35:45;;;;;;;7.10;2.30;;;;;;;7.49;65.66;100065.05;78582;1303;3054513;-67
2023/03/18 12:38:49;;;;;;;10.00;2.80;;;;;;;7.56;65.34;100059.90;79450;1302;3014989;-67
2023/03/18 12:41:38;;;;;;;6.40;2.40;;;;;;;7.43;65.63;100061.11;78116;1301;3054882;-67
2023/03/18 12:44:12;;;;;;;6.50;1.90;;;;;;;7.59;65.73;100065.03;78280;1301;3069150;-66
2023/03/18 12:46:49;;;;;;;6.40;1.90;;;;;;;7.59;65.39;100066.05;78209;1298;3051713;-61
2023/03/18 12:49:28;;;;;;;15.10;2.50;;;;;;;7.61;65.39;100067.02;79563;1298;3011506;-72
2023/03/18 12:52:03;;;;;;;9.40;2.10;;;;;;;7.60;64.95;100065.52;77958;1303;3050074;-69
2023/03/18 12:54:39;;;;;;;9.60;2.70;;;;;;;7.51;65.21;100064.95;78128;1297;3052799;-63
2023/03/18 12:57:53;;;;;;;8.40;2.00;;;;;;;7.49;65.59;100060.17;78874;1296;3013564;-69
2023/03/18 13:00:27;;;;;;;4.50;1.70;;;;;;;7.52;65.58;100060.93;78203;1296;3049923;-70
2023/03/18 13:03:25;;;;;;;5.10;2.50;;;;;;;7.58;65.65;100055.81;78983;1300;3013250;-71
2023/03/18 13:06:03;;;;;;;8.90;2.60;;;;;;;7.54;65.07;100051.63;78528;1297;3053393;-67
2023/03/18 13:09:00;;;;;;;4.80;1.60;;;;;;;7.60;64.96;100055.39;78198;1300;3053737;-67
2023/03/18 13:11:31;;;;;;;3.80;1.70;;;;;;;7.60;65.03;100052.09;78077;1300;3069054;-67
2023/03/18 13:14:02;;;;;;;6.40;2.20;;;;;;;7.56;65.18;100055.02;79542;1297;3011927;-64
2023/03/18 13:16:32;;;;;;;9.90;2.10;;;;;;;7.62;65.10;100057.06;78221;1298;3058555;-66
2023/03/18 13:19:00;;;;;;;8.70;2.10;;;;;;;7.57;64.82;100060.03;79182;1298;3015419;-67
2023/03/18 13:21:35;;;;;;;6.90;2.00;;;;;;;7.56;64.97;100057.29;78104;1304;3050348;-69
2023/03/18 13:24:08;;;;;;;6.00;1.80;;;;;;;7.59;64.88;100057.90;79597;1300;3011539;-68
2023/03/18 13:26:45;;;;;;;7.00;1.80;;;;;;;7.58;64.93;100056.16;78305;1300;3052196;-64
2023/03/18 13:29:15;;;;;;;6.70;1.40;;;;;;;7.50;64.83;100058.23;78057;1299;3069717;-63
2023/03/18 13:32:00;;;;;;;5.20;1.70;;;;;;;7.48;64.79;100056.54;79124;1297;3012812;-63
2023/03/18 13:34:53;;;;;;;2.80;1.70;;;;;;;7.33;65.29;100056.95;78270;1300;3056739;-63
2023/03/18 13:37:31;;;;;;;4.30;1.80;;;;;;;7.27;65.62;100061.52;78120;1300;3050418;-68
2023/03/18 13:40:27;;;;;;;2.20;1.60;;;;;;;7.36;65.55;100053.16;78058;1296;3053992;-66
2023/03/18 13:42:57;;;;;;;2.70;1.90;;;;;;;7.25;65.83;100066.83;78218;1297;3050299;-64
2023/03/18 13:45:32;;;;;;;3.30;2.20;;;;;;;7.21;66.00;100066.61;79145;1303;3013674;-64
2023/03/18 13:48:08;;;;;;;4.20;2.00;;;;;;;7.17;66.16;100068.48;78044;1300;3051536;-64
2023/03/18 13:50:42;;;;;;;2.00;1.50;;;;;;;7.27;65.83;100070.41;78201;1297;3068065;-64
2023/03/18 13:53:33;;;;;;;2.90;1.80;;;;;;;7.28;65.53;100071.78;79425;1298;3013712;-64
2023/03/18 13:56:03;;;;;;;4.20;1.80;;;;;;;7.17;65.54;100067.63;78138;1300;3057457;-65
2023/03/18 13:58:44;;;;;;;3.20;1.70;;;;;;;7.09;65.68;100066.19;79432;1300;3013087;-65
2023/03/18 14:01:35;;;;;;;4.50;1.50;;;;;;;7.05;65.61;100063.20;78128;1296;3053136;-67
2023/03/18 14:04:18;;;;;;;2.90;1.70;;;;;;;6.89;65.84;100062.20;78117;1299;3051097;-64
2023/03/18 14:06:55;;;;;;;2.80;1.60;;;;;;;6.84;66.32;100066.02;78059;1298;3052579;-68
2023/03/18 14:09:31;;;;;;;4.20;1.60;;;;;;;6.84;65.80;100063.24;78216;1300;3050633;-64
2023/03/18 14:12:29;;;;;;;3.10;1.50;;;;;;;6.89;65.70;100068.46;78010;1297;3068989;-67
2023/03/18 14:15:13;;;;;;;4.60;1.70;;;;;;;6.91;65.71;100064.73;78075;1300;3051829;-68
2023/03/18 14:17:46;;;;;;;3.80;1.60;;;;;;;6.86;65.81;100063.52;78053;1300;3057342;-68
2023/03/18 14:20:15;;;;;;;2.90;1.80;;;;;;;6.78;66.03;100062.95;79392;1297;3011822;-70
2023/03/18 14:22:45;;;;;;;3.20;2.00;;;;;;;6.68;66.07;100069.04;78033;1300;3053668;-66
2023/03/18 14:25:11;;;;;;;3.00;1.60;;;;;;;6.55;66.52;100069.31;79439;1300;3013083;-61
2023/03/18 14:27:53;;;;;;;2.90;1.90;;;;;;;6.64;66.65;100072.48;79426;1297;3013417;-68
2023/03/18 14:30:33;;;;;;;3.70;1.80;;;;;;;6.61;66.39;100070.32;78275;1300;3070108;-62
2023/03/18 14:33:02;;;;;;;2.90;1.60;;;;;;;6.53;66.71;100076.70;78176;1300;3051970;-64
2023/03/18 14:35:34;;;;;;;2.50;1.80;;;;;;;6.40;66.97;100073.29;79621;1298;3013538;-68
2023/03/18 14:38:03;;;;;;;3.10;1.70;;;;;;;6.37;67.23;100077.04;78194;1296;3052716;-62
2023/03/18 14:40:34;;;;;;;2.60;1.60;;;;;;;6.38;67.11;100080.50;79336;1298;3013835;-63
2023/03/18 14:43:08;;;;;;;7.00;1.80;;;;;;;6.41;67.22;100084.77;78013;1297;3051049;-65
2023/03/18 14:45:38;;;;;;;2.50;1.60;;;;;;;6.38;67.09;100083.83;79366;1300;3011639;-65
2023/03/18 14:48:38;;;;;;;3.30;1.60;;;;;;;6.27;67.67;100081.77;78060;1300;3068950;-65
2023/03/18 14:51:10;;;;;;;4.00;1.70;;;;;;;6.25;67.73;100087.37;77914;1295;3049821;-64
2023/03/18 14:53:43;;;;;;;4.30;1.60;;;;;;;6.24;67.68;100090.04;79280;1296;3011650;-67
2023/03/18 14:56:28;;;;;;;2.20;1.60;;;;;;;6.17;67.64;100093.18;78104;1299;3051383;-68
2023/03/18 14:58:56;;;;;;;3.70;1.40;;;;;;;5.98;68.21;100100.39;78202;1300;3054388;-71
2023/03/18 15:01:39;;;;;;;3.50;1.90;;;;;;;5.93;68.52;100101.23;79258;1297;3018608;-62
2023/03/18 15:04:14;;;;;;;2.20;1.30;;;;;;;5.96;67.85;100102.70;78257;1300;3052273;-64
2023/03/18 15:06:43;;;;;;;2.20;1.50;;;;;;;5.93;67.93;100104.18;78153;1300;3069732;-65
2023/03/18 15:09:15;;;;;;;3.50;1.50;;;;;;;5.93;68.00;100112.02;79246;1297;3013007;-66
2023/03/18 15:11:44;;;;;;;2.80;1.60;;;;;;;5.92;68.07;100110.14;78108;1295;3051429;-68
2023/03/18 15:14:28;;;;;;;;;;;;;;;5.98;68.04;100114.15;79533;1295;3011949;-63
2023/03/18 15:17:02;;;;;;;5.80;1.70;;;;;;;5.92;68.04;100116.21;78068;1300;3051854;-69
2023/03/18 15:19:30;;;;;;;2.90;1.80;;;;;;;5.94;68.37;100118.24;79327;1295;3013154;-69
2023/03/18 15:22:04;;;;;;;2.60;1.50;;;;;;;5.97;68.08;100114.51;78157;1298;3053151;-67
2023/03/18 15:24:31;;;;;;;2.20;1.40;;;;;;;5.93;68.25;100117.39;79372;1295;3013369;-63
2023/03/18 15:27:11;;;;;;;3.50;1.80;;;;;;;5.96;67.98;100119.95;78034;1301;3050340;-64
2023/03/18 15:29:47;;;;;;;5.00;1.90;;;;;;;5.91;68.06;100125.83;78912;1295;3013149;-70
2023/03/18 15:32:19;;;;;;;6.60;2.20;;;;;;;5.84;68.53;100125.69;78702;1295;3011719;-67
2023/03/18 15:34:56;;;;;;;10.00;2.20;;;;;;;5.75;68.81;100122.65;79364;1299;3012882;-62
2023/03/18 15:37:33;;;;;;;7.30;1.80;;;;;;;5.78;68.75;100126.20;78200;1295;3050161;-63
2023/03/18 15:40:28;;;;;;;5.10;1.50;;;;;;;5.77;68.71;100131.12;78208;1295;3054462;-67
2023/03/18 15:43:15;;;;;;;10.60;2.30;;;;;;;5.69;68.87;100133.59;78291;1299;3052931;-67
2023/03/18 15:45:45;;;;;;;5.80;2.00;;;;;;;5.61;69.25;100134.17;78655;1297;3053307;-63
2023/03/18 15:48:33;;;;;;;9.00;2.20;;;;;;;5.64;69.20;100136.20;80142;1298;3011627;-65
2023/03/18 15:51:04;;;;;;;4.20;2.10;;;;;;;5.59;69.49;100133.89;80248;1294;3069620;-65
2023/03/18 15:53:41;;;;;;;5.70;1.90;;;;;;;5.56;69.57;100137.09;81866;1295;3011352;-66
2023/03/18 15:56:24;;;;;;;3.60;1.80;;;;;;;5.59;70.01;100139.63;80697;1294;3056942;-69
2023/03/18 15:59:02;;;;;;;4.50;2.10;;;;;;;5.66;69.49;100138.89;79075;1295;3048656;-68
2023/03/18 16:01:36;;;;;;;11.40;2.10;;;;;;;5.72;69.14;100141.52;78467;1300;3054199;-69
2023/03/18 16:04:09;;;;;;;10.30;2.00;;;;;;;5.68;69.07;100147.02;78942;1300;3013479;-68
2023/03/18 16:06:37;;;;;;;7.60;1.90;;;;;;;5.61;69.50;100147.38;79735;1299;3011634;-65
2023/03/18 16:09:21;;;;;;;5.60;2.40;;;;;;;5.60;69.28;100147.92;78413;1299;3052842;-69
2023/03/18 16:11:57;;;;;;;10.30;2.30;;;;;;;5.55;69.08;100146.16;78288;1300;3051621;-66
2023/03/18 16:14:27;;;;;;;8.40;2.20;;;;;;;5.56;69.05;100149.63;79426;1299;3013128;-69
2023/03/18 16:16:55;;;;;;;10.90;2.50;;;;;;;5.43;69.51;100149.83;78289;1297;3052956;-63
2023/03/18 16:19:24;;;;;;;8.70;2.50;;;;;;;5.45;69.71;100150.11;79464;1296;3013108;-71
2023/03/18 16:21:51;;;;;;;4.00;1.90;;;;;;;5.51;69.55;100153.77;79590;1295;3011591;-71
2023/03/18 16:24:23;;;;;;;6.40;2.20;;;;;;;5.59;69.53;100161.88;78132;1300;3052963;-68
2023/03/18 16:26:53;;;;;;;9.20;2.60;;;;;;;5.60;69.26;100160.11;79456;1300;3013321;-70
2023/03/18 16:29:28;;;;;;;6.70;2.00;;;;;;;5.59;69.44;100160.98;79116;1299;3011616;-66
2023/03/18 16:31:59;;;;;;;10.20;2.70;;;;;;;5.62;69.35;100158.31;78685;1300;3013147;-69
2023/03/18 16:34:26;;;;;;;7.30;2.60;;;;;;;5.62;69.44;100162.13;79459;1297;3011696;-70
2023/03/18 16:36:59;;;;;;;8.50;2.60;;;;;;;5.62;69.40;100162.13;78264;1294;3052824;-71
2023/03/18 16:39:27;;;;;;;7.90;2.60;;;;;;;5.54;69.75;100164.11;79155;1295;3013814;-71
2023/03/18 16:41:55;;;;;;;5.10;2.20;;;;;;;5.46;70.26;100163.81;79554;1300;3011739;-70
2023/03/18 16:44:24;;;;;;;5.10;2.20;;;;;;;5.48;70.25;100161.48;78001;1294;3051100;-69
2023/03/18 16:46:52;;;;;;;4.10;1.90;;;;;;;5.51;69.83;100161.25;79522;1297;3011816;-66
2023/03/18 16:49:28;;;;;;;4.00;2.20;;;;;;;5.50;69.49;100161.59;77918;1302;3029817;-73
2023/03/18 16:51:57;;;;;;;5.60;2.00;;;;;;;5.46;69.85;100163.98;78731;1295;3011944;-73
2023/03/18 16:54:27;;;;;;;6.50;2.00;;;;;;;5.47;69.61;100158.21;79527;1295;3011339;-73
2023/03/18 16:57:00;;;;;;;10.20;2.60;;;;;;;5.39;69.39;100154.97;78216;1294;3051135;-67
2023/03/18 16:59:34;;;;;;;8.80;1.90;;;;;;;5.27;70.09;100155.65;79363;1294;3013037;-66
2023/03/18 17:02:03;;;;;;;5.80;2.00;;;;;;;5.24;70.08;100159.22;78554;1294;3048664;-68
2023/03/18 17:04:31;;;;;;;5.20;2.20;;;;;;;5.09;70.64;100158.39;79437;1298;3013869;-67
2023/03/18 17:06:59;;;;;;;5.90;2.40;;;;;;;5.22;70.17;100157.02;79554;1299;3013044;-68
2023/03/18 17:09:27;;;;;;;7.50;2.00;;;;;;;5.22;70.14;100158.38;78271;1296;3050838;-71
2023/03/18 17:11:56;;;;;;;6.50;1.90;;;;;;;5.26;70.17;100157.41;79237;1299;3013051;-67
2023/03/18 17:14:30;;;;;;;7.90;2.50;;;;;;;5.23;70.49;100160.45;79130;1300;3011891;-71
2023/03/18 17:16:58;;;;;;;7.40;2.20;;;;;;;5.20;70.60;100160.54;79245;1295;3011985;-75
2023/03/18 17:19:30;;;;;;;7.20;2.40;;;;;;;5.26;70.54;100163.49;78202;1300;3049936;-65
2023/03/18 17:21:59;;;;;;;3.10;2.00;;;;;;;5.24;70.58;100160.59;79559;1297;3012015;-68
2023/03/18 17:24:27;;;;;;;4.60;1.90;;;;;;;5.31;70.52;100158.48;78991;1298;3011619;-72
2023/03/18 17:26:54;;;;;;;9.40;2.60;;;;;;;5.31;70.40;100160.40;79588;1299;3013393;-70
2023/03/18 17:29:24;;;;;;;7.10;2.20;;;;;;;5.27;70.28;100157.40;79437;1300;3012984;-69
2023/03/18 17:31:52;;;;;;;3.50;2.50;;;;;;;5.23;70.30;100162.02;78165;1295;3052130;-71
2023/03/18 17:34:19;;;;;;;5.90;2.50;;;;;;;5.27;70.30;100157.58;79705;1299;3015182;-71
2023/03/18 17:36:47;;;;;;;6.40;2.00;;;;;;;5.24;70.19;100164.76;79461;1295;3011723;-67
2023/03/18 17:39:15;;;;;;;3.80;2.10;;;;;;;5.24;70.12;100162.51;78524;1300;3052253;-67
2023/03/18 17:41:41;;;;;;;3.10;2.00;;;;;;;5.17;70.29;100163.05;79740;1300;3013023;-67
2023/03/18 17:44:25;;;;;;;4.90;2.10;;;;;;;5.18;70.32;100159.89;78226;1295;3069325;-66
2023/03/18 17:46:52;;;;;;;3.10;1.90;;;;;;;5.22;69.88;100156.64;78255;1296;3051022;-64
2023/03/18 17:49:22;;;;;;;4.40;2.50;;;;;;;5.22;69.52;100156.30;79270;1297;3013494;-70
2023/03/18 17:51:53;;;;;;;3.50;1.90;;;;;;;5.19;69.43;100154.30;78116;1299;3055118;-67
2023/03/18 17:54:23;;;;;;;2.40;1.40;;;;;;;5.17;69.48;100154.71;79240;1300;3015007;-65
2023/03/18 17:56:52;;;;;;;4.20;2.10;;;;;;;5.07;69.48;100155.50;78061;1299;3052920;-67
2023/03/18 17:59:18;;;;;;;3.60;2.10;;;;;;;4.94;70.15;100152.55;79462;1299;3013732;-68
2023/03/18 18:01:46;;;;;;;2.30;1.70;;;;;;;5.00;70.16;100153.95;79340;1298;3011918;-66
2023/03/18 18:04:18;;;;;;;3.50;1.90;;;;;;;5.03;69.69;100152.80;78272;1300;3049928;-67
2023/03/18 18:06:46;;;;;;;2.70;1.70;;;;;;;5.05;69.86;100151.72;79159;1295;3013612;-63
2023/03/18 18:09:15;;;;;;;3.00;1.80;;;;;;;5.06;69.64;100152.95;78236;1298;3027486;-66
2023/03/18 18:11:52;;;;;;;6.30;2.30;;;;;;;5.00;69.77;100152.56;78846;1300;3011594;-68
2023/03/18 18:14:24;;;;;;;4.40;1.90;;;;;;;4.98;70.13;100159.73;79615;1297;3012943;-66
2023/03/18 18:16:52;;;;;;;3.10;1.70;;;;;;;4.96;70.10;100154.05;78206;1295;3069426;-65
2023/03/18 18:19:23;;;;;;;3.40;1.80;;;;;;;4.93;70.14;100153.60;79423;1295;3011654;-66
2023/03/18 18:21:52;;;;;;;2.90;1.50;;;;;;;4.95;70.16;100157.38;78253;1300;3056545;-67
2023/03/18 18:24:24;;;;;;;3.50;1.80;;;;;;;5.00;69.94;100156.36;79535;1300;3013389;-70
2023/03/18 18:26:52;;;;;;;4.40;2.00;;;;;;;4.96;69.80;100163.95;78336;1295;3048894;-67
2023/03/18 18:29:21;;;;;;;5.20;1.90;;;;;;;4.97;70.07;100160.96;79453;1300;3013013;-65
2023/03/18 18:31:51;;;;;;;3.80;1.70;;;;;;;4.99;69.84;100165.44;78939;1295;3013216;-66
2023/03/18 18:34:20;;;;;;;5.00;1.70;;;;;;;5.03;69.68;100166.19;79403;1300;3018431;-63
2023/03/18 18:36:48;;;;;;;2.70;1.60;;;;;;;5.04;69.77;100165.81;79255;1299;3011963;-66
2023/03/18 18:39:16;;;;;;;2.10;1.60;;;;;;;4.96;69.88;100167.42;78112;1295;3051194;-68
2023/03/18 18:41:47;;;;;;;3.60;2.00;;;;;;;4.88;70.16;100166.77;79356;1297;3011478;-69
2023/03/18 18:44:17;;;;;;;3.40;2.10;;;;;;;4.90;70.28;100169.33;78188;1298;3050323;-64
2023/03/18 18:46:45;;;;;;;3.40;2.00;;;;;;;4.90;70.17;100168.79;79426;1300;3013096;-68
2023/03/18 18:49:20;;;;;;;3.00;1.60;;;;;;;4.95;70.13;100172.66;79534;1297;3011667;-66
2023/03/18 18:51:53;;;;;;;3.20;1.80;;;;;;;4.93;69.91;100171.49;78247;1296;3051137;-63
2023/03/18 18:54:20;;;;;;;3.80;1.90;;;;;;;4.93;70.10;100172.38;79539;1300;3011255;-67
2023/03/18 18:56:48;;;;;;;3.30;1.80;;;;;;;4.85;70.21;100169.09;78252;1300;3051881;-68
2023/03/18 18:59:29;;;;;;;3.00;1.90;;;;;;;4.87;70.28;100168.70;79576;1295;3019102;-67
2023/03/18 19:02:02;;;;;;;2.70;1.50;;;;;;;4.78;70.41;100167.36;78330;1300;3053301;-66
2023/03/18 19:04:29;;;;;;;2.40;1.70;;;;;;;4.83;70.35;100165.32;79267;1299;3011754;-67
2023/03/18 19:06:57;;;;;;;2.60;1.50;;;;;;;4.97;69.78;100167.56;78250;1299;3028622;-64
2023/03/18 19:09:24;;;;;;;3.10;1.70;;;;;;;4.95;69.68;100166.07;79288;1297;3019211;-65
2023/03/18 19:11:52;;;;;;;3.60;2.10;;;;;;;4.94;69.87;100167.83;79309;1295;3011746;-62
2023/03/18 19:14:24;;;;;;;2.70;1.70;;;;;;;4.94;69.78;100165.73;78229;1300;3054128;-66
2023/03/18 19:16:52;;;;;;;5.70;2.10;;;;;;;4.91;69.78;100168.41;79406;1299;3011597;-66
2023/03/18 19:19:23;;;;;;;3.60;1.90;;;;;;;4.96;69.71;100168.30;78289;1300;3052630;-69
2023/03/18 19:21:53;;;;;;;4.80;2.20;;;;;;;4.95;69.29;100167.27;79259;1300;3011612;-63
2023/03/18 19:24:29;;;;;;;4.90;1.70;;;;;;;4.96;68.94;100169.14;78280;1300;3070658;-69
2023/03/18 19:27:01;;;;;;;3.80;1.60;;;;;;;4.93;68.85;100168.38;78143;1300;3051647;-66
2023/03/18 19:29:33;;;;;;;4.50;1.80;;;;;;;4.92;68.81;100171.35;78163;1300;3057197;-64
2023/03/18 19:32:00;;;;;;;2.40;1.50;;;;;;;4.90;68.96;100167.05;79328;1295;3013513;-66
2023/03/18 19:34:28;;;;;;;2.10;1.40;;;;;;;4.79;69.16;100164.04;79339;1295;3013956;-66
2023/03/18 19:36:56;;;;;;;2.10;1.30;;;;;;;4.87;69.15;100158.97;78323;1300;3051853;-73
2023/03/18 19:39:24;;;;;;;3.50;1.90;;;;;;;4.86;69.10;100155.00;79414;1297;3013437;-67
2023/03/18 19:41:55;;;;;;;2.70;1.70;;;;;;;4.86;69.13;100155.19;78183;1298;3052580;-70
2023/03/18 19:44:25;;;;;;;3.20;1.70;;;;;;;4.95;68.84;100153.73;79685;1295;3013063;-65
2023/03/18 19:46:55;;;;;;;2.90;1.80;;;;;;;4.96;68.22;100153.02;78070;1300;3055351;-68
2023/03/18 19:49:32;;;;;;;2.60;1.70;;;;;;;4.92;68.27;100152.95;79413;1300;3013177;-65
2023/03/18 19:52:01;;;;;;;2.40;1.40;;;;;;;4.92;68.45;100156.42;78390;1299;3053801;-67
2023/03/18 19:54:34;;;;;;;6.40;1.80;;;;;;;4.97;68.37;100154.72;79298;1303;3014308;-65
2023/03/18 19:57:04;;;;;;;2.50;1.40;;;;;;;4.94;68.05;100151.33;78258;1300;3052353;-66
2023/03/18 19:59:32;;;;;;;2.10;1.50;;;;;;;4.88;68.24;100154.08;79396;1299;3011595;-66
2023/03/18 20:02:01;;;;;;;3.00;1.60;;;;;;;4.84;68.56;100150.73;78174;1300;3025802;-65
2023/03/18 20:04:28;;;;;;;3.10;1.50;;;;;;;4.79;68.77;100149.11;79681;1298;3012922;-69
2023/03/18 20:07:00;;;;;;;4.40;1.70;;;;;;;4.77;68.77;100149.17;78508;1300;3052781;-67
2023/03/18 20:09:27;;;;;;;3.20;1.90;;;;;;;4.81;68.68;100150.27;79404;1296;3012871;-68
2023/03/18 20:11:55;;;;;;;4.10;1.90;;;;;;;4.82;68.71;100150.59;79514;1298;3012251;-67
2023/03/18 20:14:26;;;;;;;2.70;1.90;;;;;;;4.92;68.52;100144.77;78208;1295;3057281;-67
2023/03/18 20:16:53;;;;;;;3.40;2.10;;;;;;;4.91;68.27;100142.36;79504;1295;3013664;-66
2023/03/18 20:19:23;;;;;;;3.30;1.60;;;;;;;4.88;68.34;100140.38;78355;1299;3027737;-65
2023/03/18 20:21:53;;;;;;;5.60;1.40;;;;;;;4.90;68.35;100138.06;79579;1295;3013056;-64
2023/03/18 20:24:27;;;;;;;3.60;1.60;;;;;;;4.91;68.27;100139.07;79165;1297;3011943;-65
2023/03/18 20:26:59;;;;;;;2.20;1.30;;;;;;;4.90;68.29;100134.06;78208;1297;3051697;-65
2023/03/18 20:29:27;;;;;;;2.40;1.60;;;;;;;4.98;68.21;100131.44;79678;1295;3013979;-65
2023/03/18 20:31:55;;;;;;;2.50;1.50;;;;;;;4.84;68.13;100128.33;79564;1294;3013135;-65
2023/03/18 20:34:23;;;;;;;3.80;1.40;;;;;;;4.84;68.47;100124.16;78395;1295;3048814;-66
2023/03/18 20:36:50;;;;;;;3.00;1.50;;;;;;;4.84;68.51;100121.05;79541;1295;3018392;-66
2023/03/18 20:39:20;;;;;;;4.10;1.50;;;;;;;4.87;68.45;100118.52;79680;1295;3012371;-64
2023/03/18 20:41:49;;;;;;;2.60;1.90;;;;;;;4.94;68.21;100118.02;78338;1300;3052649;-67
2023/03/18 20:44:16;;;;;;;2.60;1.50;;;;;;;4.86;68.18;100118.02;79408;1294;3013624;-65
2023/03/18 20:46:42;;;;;;;3.00;1.50;;;;;;;4.86;68.32;100109.88;79251;1297;3013014;-65
2023/03/18 20:49:12;;;;;;;2.40;1.50;;;;;;;4.91;68.38;100106.64;78322;1297;3048964;-65
2023/03/18 20:51:42;;;;;;;1.80;1.40;;;;;;;4.86;68.01;100101.02;79489;1297;3012509;-66
2023/03/18 20:54:18;;;;;;;2.40;1.60;;;;;;;4.82;68.41;100104.41;78314;1297;3027352;-66
2023/03/18 20:56:47;;;;;;;4.90;1.80;;;;;;;4.84;68.36;100101.42;79079;1297;3011652;-63
2023/03/18 20:59:14;;;;;;;4.00;1.70;;;;;;;4.82;68.43;100103.89;79571;1297;3012959;-66
2023/03/18 21:01:41;;;;;;;4.90;1.80;;;;;;;4.82;68.65;100099.38;79807;1297;3011635;-63
2023/03/18 21:04:10;;;;;;;2.10;1.40;;;;;;;4.84;68.66;100095.69;78224;1300;3051222;-66
2023/03/18 21:06:42;;;;;;;4.90;1.50;;;;;;;4.84;68.42;100094.49;79680;1294;3012252;-66
2023/03/18 21:09:11;;;;;;;6.00;1.40;;;;;;;4.87;68.50;100092.31;78264;1298;3049184;-64
2023/03/18 21:11:41;;;;;;;4.80;1.40;;;;;;;4.87;68.21;100093.52;79614;1295;3011703;-63
2023/03/18 21:14:13;;;;;;;3.60;1.50;;;;;;;4.82;68.43;100092.97;78279;1297;3051181;-65
2023/03/18 21:16:39;;;;;;;5.10;2.20;;;;;;;4.78;68.81;100094.48;79391;1297;3011601;-66
2023/03/18 21:19:09;;;;;;;2.00;1.40;;;;;;;4.79;68.89;100089.74;78216;1297;3026187;-66
2023/03/18 21:21:37;;;;;;;4.60;1.70;;;;;;;4.80;68.78;100085.71;79655;1297;3013763;-66
2023/03/18 21:24:25;;;;;;;3.10;1.70;;;;;;;4.76;68.89;100086.73;79444;1295;3012348;-63
2023/03/18 21:26:53;;;;;;;2.80;1.30;;;;;;;4.81;68.72;100081.71;78167;1297;3049874;-62
2023/03/18 21:29:20;;;;;;;2.20;1.50;;;;;;;4.71;68.80;100082.84;79439;1295;3013963;-62
2023/03/18 21:31:51;;;;;;;2.90;1.60;;;;;;;4.70;68.96;100078.71;78216;1297;3053353;-64
2023/03/18 21:34:18;;;;;;;3.40;1.60;;;;;;;4.74;69.04;100075.48;79654;1300;3014680;-64
2023/03/18 21:36:47;;;;;;;3.80;1.30;;;;;;;4.80;68.66;100074.63;79365;1295;3011496;-64
2023/03/18 21:39:14;;;;;;;3.80;1.90;;;;;;;4.88;68.67;100075.63;78274;1298;3057857;-65
2023/03/18 21:41:41;;;;;;;3.10;1.60;;;;;;;4.83;68.33;100076.98;79476;1297;3021033;-62